sensor_id;sensor_type;location;lat;lon;timestamp;temperature;humidity
20158;DHT22;10239;56.820;24.416;2023-02-01T00:01:07;1.70;99.90
20158;DHT22;10239;56.820;24.416;2023-02-01T00:03:35;1.60;99.90
20158;DHT22;10239;56.820;24.416;2023-02-01T00:06:03;1.70;99.90
20158;DHT22;10239;56.820;24.416;2023-02-01T00:08:32;1.70;99.90
20158;DHT22;10239;56.820;24.416;2023-02-01T00:11:02;1.60;99.90
20158;DHT22;10239;56.820;24.416;2023-02-01T00:13:32;1.90;99.90
20158;DHT22;10239;56.820;24.416;2023-02-01T00:18:32;2.00;99.90
20158;DHT22;10239;56.820;24.416;2023-02-01T00:21:00;1.90;99.90
20158;DHT22;10239;56.820;24.416;2023-02-01T00:23:28;1.90;99.90
20158;DHT22;10239;56.820;24.416;2023-02-01T00:26:00;1.80;99.90
20158;DHT22;10239;56.820;24.416;2023-02-01T00:28:28;1.90;99.90
20158;DHT22;10239;56.820;24.416;2023-02-01T00:30:58;1.90;99.90
20158;DHT22;10239;56.820;24.416;2023-02-01T00:33:26;1.90;99.90
20158;DHT22;10239;56.820;24.416;2023-02-01T00:36:05;1.70;99.90
20158;DHT22;10239;56.820;24.416;2023-02-01T00:38:35;1.80;99.90
20158;DHT22;10239;56.820;24.416;2023-02-01T00:41:22;1.60;99.90
20158;DHT22;10239;56.820;24.416;2023-02-01T00:43:50;1.60;99.90
20158;DHT22;10239;56.820;24.416;2023-02-01T00:46:19;1.60;99.90
20158;DHT22;10239;56.820;24.416;2023-02-01T00:48:48;1.80;99.90
20158;DHT22;10239;56.820;24.416;2023-02-01T00:51:22;1.80;99.90
20158;DHT22;10239;56.820;24.416;2023-02-01T00:53:50;1.70;99.90
20158;DHT22;10239;56.820;24.416;2023-02-01T00:56:18;1.70;99.90
20158;DHT22;10239;56.820;24.416;2023-02-01T00:58:46;1.80;99.90
20158;DHT22;10239;56.820;24.416;2023-02-01T01:01:19;1.80;99.90
20158;DHT22;10239;56.820;24.416;2023-02-01T01:03:50;1.90;99.90
20158;DHT22;10239;56.820;24.416;2023-02-01T01:06:21;1.80;99.90
20158;DHT22;10239;56.820;24.416;2023-02-01T01:08:54;1.90;99.90
20158;DHT22;10239;56.820;24.416;2023-02-01T01:11:25;1.90;99.90
20158;DHT22;10239;56.820;24.416;2023-02-01T01:13:55;1.80;99.90
20158;DHT22;10239;56.820;24.416;2023-02-01T01:16:24;1.80;99.90
20158;DHT22;10239;56.820;24.416;2023-02-01T01:18:55;1.90;99.90
20158;DHT22;10239;56.820;24.416;2023-02-01T01:21:22;1.80;99.90
20158;DHT22;10239;56.820;24.416;2023-02-01T01:23:51;1.70;99.90
20158;DHT22;10239;56.820;24.416;2023-02-01T01:26:24;1.70;99.90
20158;DHT22;10239;56.820;24.416;2023-02-01T01:28:54;1.60;99.90
20158;DHT22;10239;56.820;24.416;2023-02-01T01:31:23;1.50;99.90
20158;DHT22;10239;56.820;24.416;2023-02-01T01:33:53;1.70;99.90
20158;DHT22;10239;56.820;24.416;2023-02-01T01:36:22;1.90;99.90
20158;DHT22;10239;56.820;24.416;2023-02-01T01:38:50;1.80;99.90
20158;DHT22;10239;56.820;24.416;2023-02-01T01:41:24;1.70;99.90
20158;DHT22;10239;56.820;24.416;2023-02-01T01:44:03;1.70;99.90
20158;DHT22;10239;56.820;24.416;2023-02-01T01:46:36;1.70;99.90
20158;DHT22;10239;56.820;24.416;2023-02-01T01:49:16;1.60;99.90
20158;DHT22;10239;56.820;24.416;2023-02-01T01:51:54;1.70;99.90
20158;DHT22;10239;56.820;24.416;2023-02-01T01:54:29;1.60;99.90
20158;DHT22;10239;56.820;24.416;2023-02-01T01:57:06;1.60;99.90
20158;DHT22;10239;56.820;24.416;2023-02-01T01:59:38;1.60;99.90
20158;DHT22;10239;56.820;24.416;2023-02-01T02:02:05;1.50;99.90
20158;DHT22;10239;56.820;24.416;2023-02-01T02:04:34;1.50;99.90
20158;DHT22;10239;56.820;24.416;2023-02-01T02:07:13;1.60;99.90
20158;DHT22;10239;56.820;24.416;2023-02-01T02:09:43;1.60;99.90
20158;DHT22;10239;56.820;24.416;2023-02-01T02:12:26;1.40;99.90
20158;DHT22;10239;56.820;24.416;2023-02-01T02:14:55;1.40;99.90
20158;DHT22;10239;56.820;24.416;2023-02-01T02:20:45;1.60;99.90
20158;DHT22;10239;56.820;24.416;2023-02-01T02:34:20;1.50;99.90
20158;DHT22;10239;56.820;24.416;2023-02-01T02:39:48;1.40;99.90
20158;DHT22;10239;56.820;24.416;2023-02-01T02:42:29;1.40;99.90
20158;DHT22;10239;56.820;24.416;2023-02-01T02:46:24;1.40;99.90
20158;DHT22;10239;56.820;24.416;2023-02-01T02:51:41;1.40;99.90
20158;DHT22;10239;56.820;24.416;2023-02-01T02:54:33;1.50;99.90
20158;DHT22;10239;56.820;24.416;2023-02-01T03:00:12;1.40;99.90
20158;DHT22;10239;56.820;24.416;2023-02-01T03:03:00;1.40;99.90
20158;DHT22;10239;56.820;24.416;2023-02-01T03:05:48;1.40;99.90
20158;DHT22;10239;56.820;24.416;2023-02-01T03:08:27;1.40;99.90
20158;DHT22;10239;56.820;24.416;2023-02-01T03:11:15;1.40;99.90
20158;DHT22;10239;56.820;24.416;2023-02-01T03:14:00;1.40;99.90
20158;DHT22;10239;56.820;24.416;2023-02-01T03:16:52;1.40;99.90
20158;DHT22;10239;56.820;24.416;2023-02-01T03:19:27;1.50;99.90
20158;DHT22;10239;56.820;24.416;2023-02-01T03:22:08;1.40;99.90
20158;DHT22;10239;56.820;24.416;2023-02-01T03:24:51;1.50;99.90
20158;DHT22;10239;56.820;24.416;2023-02-01T03:30:21;1.40;99.90
20158;DHT22;10239;56.820;24.416;2023-02-01T03:32:54;1.50;99.90
20158;DHT22;10239;56.820;24.416;2023-02-01T03:35:48;1.50;99.90
20158;DHT22;10239;56.820;24.416;2023-02-01T03:38:20;1.50;99.90
20158;DHT22;10239;56.820;24.416;2023-02-01T03:41:08;1.50;99.90
20158;DHT22;10239;56.820;24.416;2023-02-01T03:43:51;1.40;99.90
20158;DHT22;10239;56.820;24.416;2023-02-01T03:46:31;1.60;99.90
20158;DHT22;10239;56.820;24.416;2023-02-01T03:49:05;1.40;99.90
20158;DHT22;10239;56.820;24.416;2023-02-01T03:51:36;1.60;99.90
20158;DHT22;10239;56.820;24.416;2023-02-01T03:54:07;1.60;99.90
20158;DHT22;10239;56.820;24.416;2023-02-01T03:56:39;1.50;99.90
20158;DHT22;10239;56.820;24.416;2023-02-01T03:59:08;1.50;99.90
20158;DHT22;10239;56.820;24.416;2023-02-01T04:01:36;1.40;99.90
20158;DHT22;10239;56.820;24.416;2023-02-01T04:04:03;1.60;99.90
20158;DHT22;10239;56.820;24.416;2023-02-01T04:06:32;1.60;99.90
20158;DHT22;10239;56.820;24.416;2023-02-01T04:09:02;1.50;99.90
20158;DHT22;10239;56.820;24.416;2023-02-01T04:11:29;1.50;99.90
20158;DHT22;10239;56.820;24.416;2023-02-01T04:13:57;1.50;99.90
20158;DHT22;10239;56.820;24.416;2023-02-01T04:16:24;1.40;99.90
20158;DHT22;10239;56.820;24.416;2023-02-01T04:18:51;1.40;99.90
20158;DHT22;10239;56.820;24.416;2023-02-01T04:21:18;1.50;99.90
20158;DHT22;10239;56.820;24.416;2023-02-01T04:23:46;1.40;99.90
20158;DHT22;10239;56.820;24.416;2023-02-01T04:26:13;1.40;99.90
20158;DHT22;10239;56.820;24.416;2023-02-01T04:28:41;1.40;99.90
20158;DHT22;10239;56.820;24.416;2023-02-01T04:31:08;1.30;99.90
20158;DHT22;10239;56.820;24.416;2023-02-01T04:33:36;1.30;99.90
20158;DHT22;10239;56.820;24.416;2023-02-01T04:36:04;1.30;99.90
20158;DHT22;10239;56.820;24.416;2023-02-01T04:38:32;1.40;99.90
20158;DHT22;10239;56.820;24.416;2023-02-01T04:40:59;1.40;99.90
20158;DHT22;10239;56.820;24.416;2023-02-01T04:43:30;1.30;99.90
20158;DHT22;10239;56.820;24.416;2023-02-01T04:45:57;1.50;99.90
20158;DHT22;10239;56.820;24.416;2023-02-01T04:48:25;1.40;99.90
20158;DHT22;10239;56.820;24.416;2023-02-01T04:50:52;1.60;99.90
20158;DHT22;10239;56.820;24.416;2023-02-01T04:53:20;1.50;99.90
20158;DHT22;10239;56.820;24.416;2023-02-01T04:55:49;1.60;99.90
20158;DHT22;10239;56.820;24.416;2023-02-01T04:58:17;1.60;99.90
20158;DHT22;10239;56.820;24.416;2023-02-01T05:00:44;1.50;99.90
20158;DHT22;10239;56.820;24.416;2023-02-01T05:03:12;1.50;99.90
20158;DHT22;10239;56.820;24.416;2023-02-01T05:05:39;1.70;99.90
20158;DHT22;10239;56.820;24.416;2023-02-01T05:08:07;1.40;99.90
20158;DHT22;10239;56.820;24.416;2023-02-01T05:10:34;1.30;99.90
20158;DHT22;10239;56.820;24.416;2023-02-01T05:13:01;1.50;99.90
20158;DHT22;10239;56.820;24.416;2023-02-01T05:15:47;1.40;99.90
20158;DHT22;10239;56.820;24.416;2023-02-01T05:18:15;1.30;99.90
20158;DHT22;10239;56.820;24.416;2023-02-01T05:20:42;1.50;99.90
20158;DHT22;10239;56.820;24.416;2023-02-01T05:23:10;1.30;99.90
20158;DHT22;10239;56.820;24.416;2023-02-01T05:25:37;1.30;99.90
20158;DHT22;10239;56.820;24.416;2023-02-01T05:28:05;1.30;99.90
20158;DHT22;10239;56.820;24.416;2023-02-01T05:30:32;1.40;99.90
20158;DHT22;10239;56.820;24.416;2023-02-01T05:33:03;1.30;99.90
20158;DHT22;10239;56.820;24.416;2023-02-01T05:35:30;1.30;99.90
20158;DHT22;10239;56.820;24.416;2023-02-01T05:37:58;1.40;99.90
20158;DHT22;10239;56.820;24.416;2023-02-01T05:40:26;1.40;99.90
20158;DHT22;10239;56.820;24.416;2023-02-01T05:42:53;1.40;99.90
20158;DHT22;10239;56.820;24.416;2023-02-01T05:45:21;1.80;99.90
20158;DHT22;10239;56.820;24.416;2023-02-01T05:47:48;1.80;99.90
20158;DHT22;10239;56.820;24.416;2023-02-01T05:50:16;2.00;99.90
20158;DHT22;10239;56.820;24.416;2023-02-01T05:52:44;1.90;99.90
20158;DHT22;10239;56.820;24.416;2023-02-01T05:55:14;1.80;99.90
20158;DHT22;10239;56.820;24.416;2023-02-01T05:57:41;1.70;99.90
20158;DHT22;10239;56.820;24.416;2023-02-01T06:00:09;1.60;99.90
20158;DHT22;10239;56.820;24.416;2023-02-01T06:02:40;1.60;99.90
20158;DHT22;10239;56.820;24.416;2023-02-01T06:05:08;1.60;99.90
20158;DHT22;10239;56.820;24.416;2023-02-01T06:07:36;1.50;99.90
20158;DHT22;10239;56.820;24.416;2023-02-01T06:10:03;1.60;99.90
20158;DHT22;10239;56.820;24.416;2023-02-01T06:12:31;1.40;99.90
20158;DHT22;10239;56.820;24.416;2023-02-01T06:15:04;1.50;99.90
20158;DHT22;10239;56.820;24.416;2023-02-01T06:17:32;1.70;99.90
20158;DHT22;10239;56.820;24.416;2023-02-01T06:19:59;1.40;99.90
20158;DHT22;10239;56.820;24.416;2023-02-01T06:22:27;1.60;99.90
20158;DHT22;10239;56.820;24.416;2023-02-01T06:24:55;1.70;99.90
20158;DHT22;10239;56.820;24.416;2023-02-01T06:27:22;1.80;99.90
20158;DHT22;10239;56.820;24.416;2023-02-01T06:29:50;1.80;99.90
20158;DHT22;10239;56.820;24.416;2023-02-01T06:32:18;1.60;99.90
20158;DHT22;10239;56.820;24.416;2023-02-01T06:34:46;1.80;99.90
20158;DHT22;10239;56.820;24.416;2023-02-01T06:37:14;1.90;99.90
20158;DHT22;10239;56.820;24.416;2023-02-01T06:39:41;2.10;99.90
20158;DHT22;10239;56.820;24.416;2023-02-01T06:42:09;1.70;99.90
20158;DHT22;10239;56.820;24.416;2023-02-01T06:44:36;1.90;99.90
20158;DHT22;10239;56.820;24.416;2023-02-01T06:47:04;1.90;99.90
20158;DHT22;10239;56.820;24.416;2023-02-01T06:49:35;1.80;99.90
20158;DHT22;10239;56.820;24.416;2023-02-01T06:52:06;1.70;99.90
20158;DHT22;10239;56.820;24.416;2023-02-01T06:54:34;1.90;99.90
20158;DHT22;10239;56.820;24.416;2023-02-01T06:57:04;1.70;99.90
20158;DHT22;10239;56.820;24.416;2023-02-01T06:59:32;1.60;99.90
20158;DHT22;10239;56.820;24.416;2023-02-01T07:01:59;1.70;99.90
20158;DHT22;10239;56.820;24.416;2023-02-01T07:04:27;1.60;99.90
20158;DHT22;10239;56.820;24.416;2023-02-01T07:06:55;1.70;99.90
20158;DHT22;10239;56.820;24.416;2023-02-01T07:09:22;1.80;99.90
20158;DHT22;10239;56.820;24.416;2023-02-01T07:11:50;1.80;99.90
20158;DHT22;10239;56.820;24.416;2023-02-01T07:14:17;1.70;99.90
20158;DHT22;10239;56.820;24.416;2023-02-01T07:16:45;1.80;99.90
20158;DHT22;10239;56.820;24.416;2023-02-01T07:19:13;2.00;99.90
20158;DHT22;10239;56.820;24.416;2023-02-01T07:21:40;2.10;99.90
20158;DHT22;10239;56.820;24.416;2023-02-01T07:24:07;2.30;99.90
20158;DHT22;10239;56.820;24.416;2023-02-01T07:26:35;2.50;99.90
20158;DHT22;10239;56.820;24.416;2023-02-01T07:29:02;2.40;99.90
20158;DHT22;10239;56.820;24.416;2023-02-01T07:31:30;2.20;99.90
20158;DHT22;10239;56.820;24.416;2023-02-01T07:33:58;2.30;99.90
20158;DHT22;10239;56.820;24.416;2023-02-01T07:36:25;2.30;99.90
20158;DHT22;10239;56.820;24.416;2023-02-01T07:38:53;2.40;99.90
20158;DHT22;10239;56.820;24.416;2023-02-01T07:41:23;2.40;99.90
20158;DHT22;10239;56.820;24.416;2023-02-01T07:43:53;2.30;99.90
20158;DHT22;10239;56.820;24.416;2023-02-01T07:46:21;2.20;99.90
20158;DHT22;10239;56.820;24.416;2023-02-01T07:48:48;2.50;99.90
20158;DHT22;10239;56.820;24.416;2023-02-01T07:51:16;2.50;99.90
20158;DHT22;10239;56.820;24.416;2023-02-01T07:53:45;2.30;99.90
20158;DHT22;10239;56.820;24.416;2023-02-01T07:56:18;2.40;99.90
20158;DHT22;10239;56.820;24.416;2023-02-01T07:58:53;2.80;99.90
20158;DHT22;10239;56.820;24.416;2023-02-01T08:01:25;2.70;99.90
20158;DHT22;10239;56.820;24.416;2023-02-01T08:03:58;2.40;99.90
20158;DHT22;10239;56.820;24.416;2023-02-01T08:06:28;2.70;99.90
20158;DHT22;10239;56.820;24.416;2023-02-01T08:08:57;2.40;99.90
20158;DHT22;10239;56.820;24.416;2023-02-01T08:11:25;2.60;99.90
20158;DHT22;10239;56.820;24.416;2023-02-01T08:13:54;2.70;99.90
20158;DHT22;10239;56.820;24.416;2023-02-01T08:16:23;2.60;99.90
20158;DHT22;10239;56.820;24.416;2023-02-01T08:18:52;2.80;99.90
20158;DHT22;10239;56.820;24.416;2023-02-01T08:21:23;2.70;99.90
20158;DHT22;10239;56.820;24.416;2023-02-01T08:23:51;2.90;99.90
20158;DHT22;10239;56.820;24.416;2023-02-01T08:26:21;3.00;99.90
20158;DHT22;10239;56.820;24.416;2023-02-01T08:28:53;3.20;99.90
20158;DHT22;10239;56.820;24.416;2023-02-01T08:31:22;3.20;99.90
20158;DHT22;10239;56.820;24.416;2023-02-01T08:33:52;3.40;99.90
20158;DHT22;10239;56.820;24.416;2023-02-01T08:36:21;3.00;99.90
20158;DHT22;10239;56.820;24.416;2023-02-01T08:38:49;3.20;99.90
20158;DHT22;10239;56.820;24.416;2023-02-01T08:41:19;3.20;99.90
20158;DHT22;10239;56.820;24.416;2023-02-01T08:43:47;3.30;99.90
20158;DHT22;10239;56.820;24.416;2023-02-01T08:46:15;3.20;99.90
20158;DHT22;10239;56.820;24.416;2023-02-01T08:48:45;3.10;99.90
20158;DHT22;10239;56.820;24.416;2023-02-01T08:51:14;3.10;99.90
20158;DHT22;10239;56.820;24.416;2023-02-01T08:53:43;3.40;99.90
20158;DHT22;10239;56.820;24.416;2023-02-01T08:56:13;3.40;99.90
20158;DHT22;10239;56.820;24.416;2023-02-01T08:58:41;3.40;99.90
20158;DHT22;10239;56.820;24.416;2023-02-01T09:01:13;3.60;99.90
20158;DHT22;10239;56.820;24.416;2023-02-01T09:03:41;3.60;99.90
20158;DHT22;10239;56.820;24.416;2023-02-01T09:06:11;3.70;99.90
20158;DHT22;10239;56.820;24.416;2023-02-01T09:08:39;3.70;99.90
20158;DHT22;10239;56.820;24.416;2023-02-01T09:11:13;3.60;99.90
20158;DHT22;10239;56.820;24.416;2023-02-01T09:13:40;3.70;99.90
20158;DHT22;10239;56.820;24.416;2023-02-01T09:16:08;3.80;99.90
20158;DHT22;10239;56.820;24.416;2023-02-01T09:18:36;3.70;99.90
20158;DHT22;10239;56.820;24.416;2023-02-01T09:21:22;3.70;99.90
20158;DHT22;10239;56.820;24.416;2023-02-01T09:23:54;3.80;99.90
20158;DHT22;10239;56.820;24.416;2023-02-01T09:26:22;3.80;99.90
20158;DHT22;10239;56.820;24.416;2023-02-01T09:28:58;3.80;99.90
20158;DHT22;10239;56.820;24.416;2023-02-01T09:31:30;3.70;99.90
20158;DHT22;10239;56.820;24.416;2023-02-01T09:33:58;3.90;99.90
20158;DHT22;10239;56.820;24.416;2023-02-01T09:36:26;4.00;99.90
20158;DHT22;10239;56.820;24.416;2023-02-01T09:38:57;4.00;99.90
20158;DHT22;10239;56.820;24.416;2023-02-01T09:47:16;4.30;99.90
20158;DHT22;10239;56.820;24.416;2023-02-01T09:50:02;4.20;99.90
20158;DHT22;10239;56.820;24.416;2023-02-01T09:52:44;4.30;99.90
20158;DHT22;10239;56.820;24.416;2023-02-01T09:55:20;4.40;99.90
20158;DHT22;10239;56.820;24.416;2023-02-01T10:00:48;4.40;99.90
20158;DHT22;10239;56.820;24.416;2023-02-01T10:03:17;4.40;99.90
20158;DHT22;10239;56.820;24.416;2023-02-01T10:09:01;4.40;99.90
20158;DHT22;10239;56.820;24.416;2023-02-01T10:14:46;4.30;99.90
20158;DHT22;10239;56.820;24.416;2023-02-01T10:20:03;4.10;99.90
20158;DHT22;10239;56.820;24.416;2023-02-01T10:25:59;3.70;99.90
20158;DHT22;10239;56.820;24.416;2023-02-01T10:28:30;3.70;99.90
20158;DHT22;10239;56.820;24.416;2023-02-01T10:31:02;3.70;99.90
20158;DHT22;10239;56.820;24.416;2023-02-01T10:33:34;3.50;99.90
20158;DHT22;10239;56.820;24.416;2023-02-01T10:36:31;3.40;99.90
20158;DHT22;10239;56.820;24.416;2023-02-01T10:38:59;3.20;99.90
20158;DHT22;10239;56.820;24.416;2023-02-01T10:41:35;3.60;99.90
20158;DHT22;10239;56.820;24.416;2023-02-01T10:44:10;3.30;99.90
20158;DHT22;10239;56.820;24.416;2023-02-01T10:46:39;3.20;99.90
20158;DHT22;10239;56.820;24.416;2023-02-01T10:49:18;3.10;99.90
20158;DHT22;10239;56.820;24.416;2023-02-01T10:52:02;3.10;99.90
20158;DHT22;10239;56.820;24.416;2023-02-01T10:54:38;3.20;99.90
20158;DHT22;10239;56.820;24.416;2023-02-01T10:57:20;3.20;99.90
20158;DHT22;10239;56.820;24.416;2023-02-01T10:59:48;3.40;99.90
20158;DHT22;10239;56.820;24.416;2023-02-01T11:02:33;3.40;99.90
20158;DHT22;10239;56.820;24.416;2023-02-01T11:05:07;3.40;99.90
20158;DHT22;10239;56.820;24.416;2023-02-01T11:07:40;3.60;99.90
20158;DHT22;10239;56.820;24.416;2023-02-01T11:10:39;3.60;99.90
20158;DHT22;10239;56.820;24.416;2023-02-01T11:13:17;3.70;99.90
20158;DHT22;10239;56.820;24.416;2023-02-01T11:15:46;3.90;99.90
20158;DHT22;10239;56.820;24.416;2023-02-01T11:18:32;4.10;99.90
20158;DHT22;10239;56.820;24.416;2023-02-01T11:21:04;4.00;99.90
20158;DHT22;10239;56.820;24.416;2023-02-01T11:23:33;4.00;99.90
20158;DHT22;10239;56.820;24.416;2023-02-01T11:26:07;4.20;99.90
20158;DHT22;10239;56.820;24.416;2023-02-01T11:28:39;4.10;99.90
20158;DHT22;10239;56.820;24.416;2023-02-01T11:31:12;4.10;99.90
20158;DHT22;10239;56.820;24.416;2023-02-01T11:33:50;4.10;99.90
20158;DHT22;10239;56.820;24.416;2023-02-01T11:36:27;4.10;99.90
20158;DHT22;10239;56.820;24.416;2023-02-01T11:42:12;3.90;99.90
20158;DHT22;10239;56.820;24.416;2023-02-01T11:44:44;4.20;99.90
20158;DHT22;10239;56.820;24.416;2023-02-01T11:47:26;4.50;99.90
20158;DHT22;10239;56.820;24.416;2023-02-01T11:50:00;4.40;99.90
20158;DHT22;10239;56.820;24.416;2023-02-01T11:58:35;4.40;99.90
20158;DHT22;10239;56.820;24.416;2023-02-01T12:04:25;4.20;99.90
20158;DHT22;10239;56.820;24.416;2023-02-01T12:12:36;4.30;99.90
20158;DHT22;10239;56.820;24.416;2023-02-01T12:15:26;4.60;99.90
20158;DHT22;10239;56.820;24.416;2023-02-01T12:51:29;3.40;99.90
20158;DHT22;10239;56.820;24.416;2023-02-01T12:54:38;3.50;99.90
20158;DHT22;10239;56.820;24.416;2023-02-01T12:57:35;3.40;99.90
20158;DHT22;10239;56.820;24.416;2023-02-01T13:00:39;3.40;99.90
20158;DHT22;10239;56.820;24.416;2023-02-01T13:08:51;3.60;99.90
20158;DHT22;10239;56.820;24.416;2023-02-01T13:11:39;3.50;99.90
20158;DHT22;10239;56.820;24.416;2023-02-01T13:14:33;3.50;99.90
20158;DHT22;10239;56.820;24.416;2023-02-01T13:19:59;3.60;99.90
20158;DHT22;10239;56.820;24.416;2023-02-01T13:22:35;3.50;99.90
20158;DHT22;10239;56.820;24.416;2023-02-01T13:25:35;3.70;99.90
20158;DHT22;10239;56.820;24.416;2023-02-01T13:42:50;3.50;99.90
20158;DHT22;10239;56.820;24.416;2023-02-01T13:45:43;3.70;99.90
20158;DHT22;10239;56.820;24.416;2023-02-01T13:48:23;3.70;99.90
20158;DHT22;10239;56.820;24.416;2023-02-01T13:50:55;3.60;99.90
20158;DHT22;10239;56.820;24.416;2023-02-01T13:53:30;3.70;99.90
20158;DHT22;10239;56.820;24.416;2023-02-01T13:56:01;3.60;99.90
20158;DHT22;10239;56.820;24.416;2023-02-01T13:58:37;3.80;99.90
20158;DHT22;10239;56.820;24.416;2023-02-01T14:03:56;3.70;99.90
20158;DHT22;10239;56.820;24.416;2023-02-01T14:17:30;3.70;99.90
20158;DHT22;10239;56.820;24.416;2023-02-01T14:19:33;3.80;99.90
20158;DHT22;10239;56.820;24.416;2023-02-01T14:24:53;3.50;99.90
20158;DHT22;10239;56.820;24.416;2023-02-01T14:27:28;3.50;99.90
20158;DHT22;10239;56.820;24.416;2023-02-01T14:30:05;3.40;99.90
20158;DHT22;10239;56.820;24.416;2023-02-01T14:32:39;3.40;99.90
20158;DHT22;10239;56.820;24.416;2023-02-01T14:35:28;3.40;99.90
20158;DHT22;10239;56.820;24.416;2023-02-01T14:38:01;3.40;99.90
20158;DHT22;10239;56.820;24.416;2023-02-01T14:40:34;3.40;99.90
20158;DHT22;10239;56.820;24.416;2023-02-01T14:43:03;3.40;99.90
20158;DHT22;10239;56.820;24.416;2023-02-01T14:50:43;3.40;99.90
20158;DHT22;10239;56.820;24.416;2023-02-01T15:01:16;3.30;99.90
20158;DHT22;10239;56.820;24.416;2023-02-01T15:11:31;2.90;99.90
20158;DHT22;10239;56.820;24.416;2023-02-01T15:13:59;2.90;99.90
20158;DHT22;10239;56.820;24.416;2023-02-01T15:16:27;2.90;99.90
20158;DHT22;10239;56.820;24.416;2023-02-01T15:19:10;2.90;99.90
20158;DHT22;10239;56.820;24.416;2023-02-01T15:21:46;3.20;99.90
20158;DHT22;10239;56.820;24.416;2023-02-01T15:24:20;3.30;99.90
20158;DHT22;10239;56.820;24.416;2023-02-01T15:26:48;3.40;99.90
20158;DHT22;10239;56.820;24.416;2023-02-01T15:29:16;3.20;99.90
20158;DHT22;10239;56.820;24.416;2023-02-01T15:31:49;3.10;99.90
20158;DHT22;10239;56.820;24.416;2023-02-01T15:34:18;3.00;99.90
20158;DHT22;10239;56.820;24.416;2023-02-01T15:36:47;3.10;99.90
20158;DHT22;10239;56.820;24.416;2023-02-01T15:39:29;3.20;99.90
20158;DHT22;10239;56.820;24.416;2023-02-01T15:42:01;3.10;99.90
20158;DHT22;10239;56.820;24.416;2023-02-01T15:44:44;3.10;99.90
20158;DHT22;10239;56.820;24.416;2023-02-01T15:47:18;3.10;99.90
20158;DHT22;10239;56.820;24.416;2023-02-01T15:49:51;3.00;99.90
20158;DHT22;10239;56.820;24.416;2023-02-01T15:52:34;3.00;99.90
20158;DHT22;10239;56.820;24.416;2023-02-01T15:55:21;3.00;99.90
20158;DHT22;10239;56.820;24.416;2023-02-01T15:57:51;3.10;99.90
20158;DHT22;10239;56.820;24.416;2023-02-01T16:00:26;2.90;99.90
20158;DHT22;10239;56.820;24.416;2023-02-01T16:02:57;2.90;99.90
20158;DHT22;10239;56.820;24.416;2023-02-01T16:05:36;3.00;99.90
20158;DHT22;10239;56.820;24.416;2023-02-01T16:08:23;3.00;99.90
20158;DHT22;10239;56.820;24.416;2023-02-01T16:10:54;3.00;99.90
20158;DHT22;10239;56.820;24.416;2023-02-01T16:13:22;3.10;99.90
20158;DHT22;10239;56.820;24.416;2023-02-01T16:15:49;3.30;99.90
20158;DHT22;10239;56.820;24.416;2023-02-01T16:18:17;3.40;99.90
20158;DHT22;10239;56.820;24.416;2023-02-01T16:20:46;3.60;99.90
20158;DHT22;10239;56.820;24.416;2023-02-01T16:23:14;3.60;99.90
20158;DHT22;10239;56.820;24.416;2023-02-01T16:25:41;3.60;99.90
20158;DHT22;10239;56.820;24.416;2023-02-01T16:28:09;3.60;99.90
20158;DHT22;10239;56.820;24.416;2023-02-01T16:30:36;3.60;99.90
20158;DHT22;10239;56.820;24.416;2023-02-01T16:33:05;3.70;99.90
20158;DHT22;10239;56.820;24.416;2023-02-01T16:35:38;3.60;99.90
20158;DHT22;10239;56.820;24.416;2023-02-01T16:38:10;3.70;99.90
20158;DHT22;10239;56.820;24.416;2023-02-01T16:40:41;3.70;99.90
20158;DHT22;10239;56.820;24.416;2023-02-01T16:43:17;3.80;99.90
20158;DHT22;10239;56.820;24.416;2023-02-01T16:45:46;3.90;99.90
20158;DHT22;10239;56.820;24.416;2023-02-01T16:50:54;4.00;99.90
20158;DHT22;10239;56.820;24.416;2023-02-01T16:53:23;4.00;99.90
20158;DHT22;10239;56.820;24.416;2023-02-01T16:55:50;4.00;99.90
20158;DHT22;10239;56.820;24.416;2023-02-01T16:58:20;4.00;99.90
20158;DHT22;10239;56.820;24.416;2023-02-01T17:00:48;4.00;99.90
20158;DHT22;10239;56.820;24.416;2023-02-01T17:03:16;4.10;99.90
20158;DHT22;10239;56.820;24.416;2023-02-01T17:05:49;4.00;99.90
20158;DHT22;10239;56.820;24.416;2023-02-01T17:08:22;4.10;99.90
20158;DHT22;10239;56.820;24.416;2023-02-01T17:10:52;4.10;99.90
20158;DHT22;10239;56.820;24.416;2023-02-01T17:13:19;4.00;99.90
20158;DHT22;10239;56.820;24.416;2023-02-01T17:15:56;3.90;99.90
20158;DHT22;10239;56.820;24.416;2023-02-01T17:18:27;4.00;99.90
20158;DHT22;10239;56.820;24.416;2023-02-01T17:20:58;4.00;99.90
20158;DHT22;10239;56.820;24.416;2023-02-01T17:23:27;4.00;99.90
20158;DHT22;10239;56.820;24.416;2023-02-01T17:25:55;4.00;99.90
20158;DHT22;10239;56.820;24.416;2023-02-01T17:28:23;4.10;99.90
20158;DHT22;10239;56.820;24.416;2023-02-01T17:30:50;4.10;99.90
20158;DHT22;10239;56.820;24.416;2023-02-01T17:33:25;4.10;99.90
20158;DHT22;10239;56.820;24.416;2023-02-01T17:35:55;4.20;99.90
20158;DHT22;10239;56.820;24.416;2023-02-01T17:38:24;4.10;99.90
20158;DHT22;10239;56.820;24.416;2023-02-01T17:40:51;4.10;99.90
20158;DHT22;10239;56.820;24.416;2023-02-01T17:43:23;4.10;99.90
20158;DHT22;10239;56.820;24.416;2023-02-01T17:46:23;4.00;99.90
20158;DHT22;10239;56.820;24.416;2023-02-01T17:48:54;3.90;99.90
20158;DHT22;10239;56.820;24.416;2023-02-01T17:51:26;3.70;99.90
20158;DHT22;10239;56.820;24.416;2023-02-01T17:53:56;3.70;99.90
20158;DHT22;10239;56.820;24.416;2023-02-01T17:56:24;3.50;99.90
20158;DHT22;10239;56.820;24.416;2023-02-01T17:58:52;3.50;99.90
20158;DHT22;10239;56.820;24.416;2023-02-01T18:01:21;3.40;99.90
20158;DHT22;10239;56.820;24.416;2023-02-01T18:03:50;3.30;99.90
20158;DHT22;10239;56.820;24.416;2023-02-01T18:06:22;3.20;99.90
20158;DHT22;10239;56.820;24.416;2023-02-01T18:08:50;3.40;99.90
20158;DHT22;10239;56.820;24.416;2023-02-01T18:11:19;3.20;99.90
20158;DHT22;10239;56.820;24.416;2023-02-01T18:13:48;3.20;99.90
20158;DHT22;10239;56.820;24.416;2023-02-01T18:16:33;3.20;99.90
20158;DHT22;10239;56.820;24.416;2023-02-01T18:19:00;3.10;99.90
20158;DHT22;10239;56.820;24.416;2023-02-01T18:21:32;3.10;99.90
20158;DHT22;10239;56.820;24.416;2023-02-01T18:24:00;3.10;99.90
20158;DHT22;10239;56.820;24.416;2023-02-01T18:26:28;3.10;99.90
20158;DHT22;10239;56.820;24.416;2023-02-01T18:28:55;3.10;99.90
20158;DHT22;10239;56.820;24.416;2023-02-01T18:31:26;3.10;99.90
20158;DHT22;10239;56.820;24.416;2023-02-01T18:33:55;3.10;99.90
20158;DHT22;10239;56.820;24.416;2023-02-01T18:36:24;3.10;99.90
20158;DHT22;10239;56.820;24.416;2023-02-01T18:38:51;3.10;99.90
20158;DHT22;10239;56.820;24.416;2023-02-01T18:41:23;3.00;99.90
20158;DHT22;10239;56.820;24.416;2023-02-01T18:43:51;3.10;99.90
20158;DHT22;10239;56.820;24.416;2023-02-01T18:46:19;3.10;99.90